sensor_id;sensor_type;location;lat;lon;timestamp;P1;durP1;ratioP1;P2;durP2;ratioP2
73104;SDS011;61296;50.526;30.792;2024-02-26T00:09:02;13.40;;;4.80;;
73104;SDS011;61296;50.526;30.792;2024-02-26T00:24:39;12.70;;;4.97;;
73104;SDS011;61296;50.526;30.792;2024-02-26T00:40:14;8.50;;;4.30;;
73104;SDS011;61296;50.526;30.792;2024-02-26T00:55:47;11.40;;;5.15;;
73104;SDS011;61296;50.526;30.792;2024-02-26T01:11:25;10.13;;;4.70;;
73104;SDS011;61296;50.526;30.792;2024-02-26T01:26:58;11.82;;;5.22;;
73104;SDS011;61296;50.526;30.792;2024-02-26T01:42:35;10.80;;;5.07;;
73104;SDS011;61296;50.526;30.792;2024-02-26T01:58:11;9.80;;;5.07;;
73104;SDS011;61296;50.526;30.792;2024-02-26T02:13:45;13.10;;;4.80;;
73104;SDS011;61296;50.526;30.792;2024-02-26T02:29:18;9.70;;;4.63;;
73104;SDS011;61296;50.526;30.792;2024-02-26T02:44:51;13.40;;;5.60;;
73104;SDS011;61296;50.526;30.792;2024-02-26T03:00:24;11.30;;;5.60;;
73104;SDS011;61296;50.526;30.792;2024-02-26T03:15:57;12.07;;;5.65;;
73104;SDS011;61296;50.526;30.792;2024-02-26T03:31:30;12.35;;;6.07;;
73104;SDS011;61296;50.526;30.792;2024-02-26T03:47:03;11.75;;;5.60;;
73104;SDS011;61296;50.526;30.792;2024-02-26T04:02:36;16.30;;;7.00;;
73104;SDS011;61296;50.526;30.792;2024-02-26T04:18:09;16.00;;;6.30;;
73104;SDS011;61296;50.526;30.792;2024-02-26T04:33:42;15.25;;;7.07;;
73104;SDS011;61296;50.526;30.792;2024-02-26T04:49:15;16.73;;;6.63;;
73104;SDS011;61296;50.526;30.792;2024-02-26T05:04:48;18.17;;;7.03;;
73104;SDS011;61296;50.526;30.792;2024-02-26T05:20:21;16.38;;;7.32;;
73104;SDS011;61296;50.526;30.792;2024-02-26T05:35:54;18.92;;;7.72;;
73104;SDS011;61296;50.526;30.792;2024-02-26T05:51:27;19.33;;;7.78;;
73104;SDS011;61296;50.526;30.792;2024-02-26T06:07:00;19.55;;;7.82;;
73104;SDS011;61296;50.526;30.792;2024-02-26T06:22:33;15.45;;;7.38;;
73104;SDS011;61296;50.526;30.792;2024-02-26T06:38:08;16.88;;;7.18;;
73104;SDS011;61296;50.526;30.792;2024-02-26T06:53:41;17.98;;;8.68;;
73104;SDS011;61296;50.526;30.792;2024-02-26T07:09:14;18.70;;;8.40;;
73104;SDS011;61296;50.526;30.792;2024-02-26T07:24:48;20.05;;;8.23;;
73104;SDS011;61296;50.526;30.792;2024-02-26T07:40:21;20.80;;;7.82;;
73104;SDS011;61296;50.526;30.792;2024-02-26T07:55:56;19.92;;;8.65;;
73104;SDS011;61296;50.526;30.792;2024-02-26T08:11:29;23.90;;;8.38;;
73104;SDS011;61296;50.526;30.792;2024-02-26T08:27:02;22.75;;;9.15;;
73104;SDS011;61296;50.526;30.792;2024-02-26T08:42:35;19.58;;;9.45;;
73104;SDS011;61296;50.526;30.792;2024-02-26T08:58:08;22.45;;;8.43;;
73104;SDS011;61296;50.526;30.792;2024-02-26T09:13:41;23.08;;;8.98;;
73104;SDS011;61296;50.526;30.792;2024-02-26T09:29:14;19.48;;;8.63;;
73104;SDS011;61296;50.526;30.792;2024-02-26T09:44:47;22.80;;;8.45;;
73104;SDS011;61296;50.526;30.792;2024-02-26T10:00:26;18.17;;;7.43;;
73104;SDS011;61296;50.526;30.792;2024-02-26T10:16:04;20.33;;;8.48;;
73104;SDS011;61296;50.526;30.792;2024-02-26T10:31:41;19.23;;;7.15;;
73104;SDS011;61296;50.526;30.792;2024-02-26T10:47:14;16.40;;;7.28;;
73104;SDS011;61296;50.526;30.792;2024-02-26T11:02:48;19.40;;;7.75;;
73104;SDS011;61296;50.526;30.792;2024-02-26T11:18:23;19.40;;;7.90;;
73104;SDS011;61296;50.526;30.792;2024-02-26T11:33:59;17.50;;;8.00;;
73104;SDS011;61296;50.526;30.792;2024-02-26T11:49:32;19.27;;;8.32;;
73104;SDS011;61296;50.526;30.792;2024-02-26T12:05:07;22.40;;;7.95;;
73104;SDS011;61296;50.526;30.792;2024-02-26T12:21:00;17.55;;;8.18;;
73104;SDS011;61296;50.526;30.792;2024-02-26T12:36:34;15.77;;;8.07;;
73104;SDS011;61296;50.526;30.792;2024-02-26T12:52:08;20.20;;;8.52;;
73104;SDS011;61296;50.526;30.792;2024-02-26T13:07:42;18.23;;;8.52;;
73104;SDS011;61296;50.526;30.792;2024-02-26T13:23:16;17.45;;;8.07;;
73104;SDS011;61296;50.526;30.792;2024-02-26T13:38:51;19.55;;;8.55;;
73104;SDS011;61296;50.526;30.792;2024-02-26T13:54:27;19.20;;;9.00;;
73104;SDS011;61296;50.526;30.792;2024-02-26T14:10:00;17.85;;;8.00;;
73104;SDS011;61296;50.526;30.792;2024-02-26T14:25:33;21.17;;;8.93;;
73104;SDS011;61296;50.526;30.792;2024-02-26T14:41:06;16.05;;;7.90;;
73104;SDS011;61296;50.526;30.792;2024-02-26T14:56:39;23.17;;;8.15;;
73104;SDS011;61296;50.526;30.792;2024-02-26T15:12:12;22.27;;;8.35;;
73104;SDS011;61296;50.526;30.792;2024-02-26T15:27:45;18.63;;;8.57;;
73104;SDS011;61296;50.526;30.792;2024-02-26T15:43:18;21.40;;;9.70;;
73104;SDS011;61296;50.526;30.792;2024-02-26T15:58:53;20.17;;;8.90;;
73104;SDS011;61296;50.526;30.792;2024-02-26T16:14:32;23.02;;;9.25;;
73104;SDS011;61296;50.526;30.792;2024-02-26T16:30:09;31.33;;;11.35;;
73104;SDS011;61296;50.526;30.792;2024-02-26T16:45:43;29.73;;;10.82;;
73104;SDS011;61296;50.526;30.792;2024-02-26T17:01:16;29.10;;;10.85;;
73104;SDS011;61296;50.526;30.792;2024-02-26T17:16:49;26.63;;;9.10;;
73104;SDS011;61296;50.526;30.792;2024-02-26T17:32:23;25.05;;;9.82;;
73104;SDS011;61296;50.526;30.792;2024-02-26T17:47:58;20.02;;;9.23;;
73104;SDS011;61296;50.526;30.792;2024-02-26T18:03:34;20.88;;;9.32;;
73104;SDS011;61296;50.526;30.792;2024-02-26T18:19:07;23.80;;;9.88;;
73104;SDS011;61296;50.526;30.792;2024-02-26T18:34:40;26.55;;;9.02;;
73104;SDS011;61296;50.526;30.792;2024-02-26T18:50:15;20.38;;;9.35;;
73104;SDS011;61296;50.526;30.792;2024-02-26T19:05:48;26.75;;;10.32;;
73104;SDS011;61296;50.526;30.792;2024-02-26T19:21:21;28.98;;;10.20;;
73104;SDS011;61296;50.526;30.792;2024-02-26T19:36:54;25.10;;;10.80;;
73104;SDS011;61296;50.526;30.792;2024-02-26T19:52:27;22.30;;;10.07;;
73104;SDS011;61296;50.526;30.792;2024-02-26T20:08:00;26.52;;;11.27;;
73104;SDS011;61296;50.526;30.792;2024-02-26T20:23:33;27.10;;;10.88;;
73104;SDS011;61296;50.526;30.792;2024-02-26T20:39:09;22.03;;;10.37;;
73104;SDS011;61296;50.526;30.792;2024-02-26T20:54:46;23.77;;;11.50;;
73104;SDS011;61296;50.526;30.792;2024-02-26T21:10:21;27.73;;;11.63;;
73104;SDS011;61296;50.526;30.792;2024-02-26T21:26:02;25.83;;;11.32;;
73104;SDS011;61296;50.526;30.792;2024-02-26T21:41:35;26.90;;;10.70;;
73104;SDS011;61296;50.526;30.792;2024-02-26T21:57:09;28.67;;;11.50;;
73104;SDS011;61296;50.526;30.792;2024-02-26T22:12:42;23.58;;;11.38;;
73104;SDS011;61296;50.526;30.792;2024-02-26T22:28:15;22.40;;;10.35;;
73104;SDS011;61296;50.526;30.792;2024-02-26T22:43:48;29.63;;;11.35;;
73104;SDS011;61296;50.526;30.792;2024-02-26T22:59:21;28.90;;;11.23;;
73104;SDS011;61296;50.526;30.792;2024-02-26T23:14:54;28.50;;;11.63;;
73104;SDS011;61296;50.526;30.792;2024-02-26T23:30:27;24.20;;;10.65;;
73104;SDS011;61296;50.526;30.792;2024-02-26T23:46:00;22.92;;;10.57;;
